sensor_id;sensor_type;location;lat;lon;timestamp;temperature;humidity
23301;DHT22;11819;51.394;12.340;2023-04-24T00:00:06;14.90;89.60
23301;DHT22;11819;51.394;12.340;2023-04-24T00:02:34;14.80;89.80
23301;DHT22;11819;51.394;12.340;2023-04-24T00:05:04;14.80;90.00
23301;DHT22;11819;51.394;12.340;2023-04-24T00:07:29;14.80;90.00
23301;DHT22;11819;51.394;12.340;2023-04-24T00:09:55;14.80;90.30
23301;DHT22;11819;51.394;12.340;2023-04-24T00:12:21;14.70;90.50
23301;DHT22;11819;51.394;12.340;2023-04-24T00:14:46;14.70;90.60
23301;DHT22;11819;51.394;12.340;2023-04-24T00:17:12;14.70;90.80
23301;DHT22;11819;51.394;12.340;2023-04-24T00:19:38;14.60;90.90
23301;DHT22;11819;51.394;12.340;2023-04-24T00:22:05;14.60;91.50
23301;DHT22;11819;51.394;12.340;2023-04-24T00:24:31;14.60;91.30
23301;DHT22;11819;51.394;12.340;2023-04-24T00:26:56;14.50;91.40
23301;DHT22;11819;51.394;12.340;2023-04-24T00:29:24;14.50;92.00
23301;DHT22;11819;51.394;12.340;2023-04-24T00:31:51;14.40;92.30
23301;DHT22;11819;51.394;12.340;2023-04-24T00:34:16;14.40;92.50
23301;DHT22;11819;51.394;12.340;2023-04-24T00:36:43;14.40;92.70
23301;DHT22;11819;51.394;12.340;2023-04-24T00:39:10;14.30;92.90
23301;DHT22;11819;51.394;12.340;2023-04-24T00:41:35;14.30;93.20
23301;DHT22;11819;51.394;12.340;2023-04-24T00:44:01;14.20;93.30
23301;DHT22;11819;51.394;12.340;2023-04-24T00:46:27;14.20;93.50
23301;DHT22;11819;51.394;12.340;2023-04-24T00:48:53;14.10;93.70
23301;DHT22;11819;51.394;12.340;2023-04-24T00:51:18;14.10;93.80
23301;DHT22;11819;51.394;12.340;2023-04-24T00:53:46;14.00;93.90
23301;DHT22;11819;51.394;12.340;2023-04-24T00:56:12;14.00;94.00
23301;DHT22;11819;51.394;12.340;2023-04-24T00:58:38;14.00;94.10
23301;DHT22;11819;51.394;12.340;2023-04-24T01:01:04;13.90;94.00
23301;DHT22;11819;51.394;12.340;2023-04-24T01:03:33;13.90;94.00
23301;DHT22;11819;51.394;12.340;2023-04-24T01:05:59;13.90;94.00
23301;DHT22;11819;51.394;12.340;2023-04-24T01:08:26;13.80;94.00
23301;DHT22;11819;51.394;12.340;2023-04-24T01:10:53;13.80;93.90
23301;DHT22;11819;51.394;12.340;2023-04-24T01:13:19;13.70;93.90
23301;DHT22;11819;51.394;12.340;2023-04-24T01:15:46;13.70;93.90
23301;DHT22;11819;51.394;12.340;2023-04-24T01:18:12;13.60;93.90
23301;DHT22;11819;51.394;12.340;2023-04-24T01:20:40;13.70;94.00
23301;DHT22;11819;51.394;12.340;2023-04-24T01:23:07;13.70;93.90
23301;DHT22;11819;51.394;12.340;2023-04-24T01:25:34;13.60;93.90
23301;DHT22;11819;51.394;12.340;2023-04-24T01:28:00;13.60;93.90
23301;DHT22;11819;51.394;12.340;2023-04-24T01:30:26;13.60;93.90
23301;DHT22;11819;51.394;12.340;2023-04-24T01:32:52;13.60;93.80
23301;DHT22;11819;51.394;12.340;2023-04-24T01:35:18;13.50;93.70
23301;DHT22;11819;51.394;12.340;2023-04-24T01:37:46;13.50;93.70
23301;DHT22;11819;51.394;12.340;2023-04-24T01:40:12;13.50;93.70
23301;DHT22;11819;51.394;12.340;2023-04-24T01:42:38;13.50;93.70
23301;DHT22;11819;51.394;12.340;2023-04-24T01:45:04;13.40;93.70
23301;DHT22;11819;51.394;12.340;2023-04-24T01:47:31;13.40;93.80
23301;DHT22;11819;51.394;12.340;2023-04-24T01:49:57;13.30;93.80
23301;DHT22;11819;51.394;12.340;2023-04-24T01:52:23;13.30;93.90
23301;DHT22;11819;51.394;12.340;2023-04-24T01:54:49;13.30;94.30
23301;DHT22;11819;51.394;12.340;2023-04-24T01:57:16;13.30;93.90
23301;DHT22;11819;51.394;12.340;2023-04-24T01:59:42;13.30;94.00
23301;DHT22;11819;51.394;12.340;2023-04-24T02:02:08;13.20;94.00
23301;DHT22;11819;51.394;12.340;2023-04-24T02:04:34;13.20;94.20
23301;DHT22;11819;51.394;12.340;2023-04-24T02:07:00;13.20;94.10
23301;DHT22;11819;51.394;12.340;2023-04-24T02:09:25;13.20;94.20
23301;DHT22;11819;51.394;12.340;2023-04-24T02:11:51;13.20;94.10
23301;DHT22;11819;51.394;12.340;2023-04-24T02:14:17;13.10;94.20
23301;DHT22;11819;51.394;12.340;2023-04-24T02:16:44;13.20;94.30
23301;DHT22;11819;51.394;12.340;2023-04-24T02:19:10;13.20;94.10
23301;DHT22;11819;51.394;12.340;2023-04-24T02:21:36;13.10;94.10
23301;DHT22;11819;51.394;12.340;2023-04-24T02:24:01;13.10;94.20
23301;DHT22;11819;51.394;12.340;2023-04-24T02:26:27;13.10;94.10
23301;DHT22;11819;51.394;12.340;2023-04-24T02:28:53;13.10;94.10
23301;DHT22;11819;51.394;12.340;2023-04-24T02:31:20;13.20;94.10
23301;DHT22;11819;51.394;12.340;2023-04-24T02:33:47;13.10;94.10
23301;DHT22;11819;51.394;12.340;2023-04-24T02:36:12;13.10;94.10
23301;DHT22;11819;51.394;12.340;2023-04-24T02:38:40;13.10;94.10
23301;DHT22;11819;51.394;12.340;2023-04-24T02:41:05;13.10;94.00
23301;DHT22;11819;51.394;12.340;2023-04-24T02:43:32;13.10;94.00
23301;DHT22;11819;51.394;12.340;2023-04-24T02:45:58;13.10;94.00
23301;DHT22;11819;51.394;12.340;2023-04-24T02:48:24;13.10;94.00
23301;DHT22;11819;51.394;12.340;2023-04-24T02:50:50;13.10;94.00
23301;DHT22;11819;51.394;12.340;2023-04-24T02:53:16;13.00;94.00
23301;DHT22;11819;51.394;12.340;2023-04-24T02:55:42;12.90;94.10
23301;DHT22;11819;51.394;12.340;2023-04-24T02:58:07;12.90;94.10
23301;DHT22;11819;51.394;12.340;2023-04-24T03:00:34;12.90;94.10
23301;DHT22;11819;51.394;12.340;2023-04-24T03:03:01;12.90;94.10
23301;DHT22;11819;51.394;12.340;2023-04-24T03:05:27;12.90;94.10
23301;DHT22;11819;51.394;12.340;2023-04-24T03:07:53;12.90;94.10
23301;DHT22;11819;51.394;12.340;2023-04-24T03:10:20;12.80;94.10
23301;DHT22;11819;51.394;12.340;2023-04-24T03:12:48;12.80;94.10
23301;DHT22;11819;51.394;12.340;2023-04-24T03:15:13;12.80;94.00
23301;DHT22;11819;51.394;12.340;2023-04-24T03:17:39;12.80;94.00
23301;DHT22;11819;51.394;12.340;2023-04-24T03:20:05;12.80;94.10
23301;DHT22;11819;51.394;12.340;2023-04-24T03:22:31;12.70;94.10
23301;DHT22;11819;51.394;12.340;2023-04-24T03:24:59;12.70;94.10
23301;DHT22;11819;51.394;12.340;2023-04-24T03:27:25;12.70;94.00
23301;DHT22;11819;51.394;12.340;2023-04-24T03:30:06;12.70;94.00
23301;DHT22;11819;51.394;12.340;2023-04-24T03:32:46;12.60;94.00
23301;DHT22;11819;51.394;12.340;2023-04-24T03:35:16;12.60;93.90
23301;DHT22;11819;51.394;12.340;2023-04-24T03:37:42;12.60;93.90
23301;DHT22;11819;51.394;12.340;2023-04-24T03:40:28;12.60;93.90
23301;DHT22;11819;51.394;12.340;2023-04-24T03:42:55;12.60;93.90
23301;DHT22;11819;51.394;12.340;2023-04-24T03:45:21;12.60;93.90
23301;DHT22;11819;51.394;12.340;2023-04-24T03:47:49;12.50;93.90
23301;DHT22;11819;51.394;12.340;2023-04-24T03:50:16;12.50;93.90
23301;DHT22;11819;51.394;12.340;2023-04-24T03:52:44;12.50;93.90
23301;DHT22;11819;51.394;12.340;2023-04-24T03:55:25;12.50;94.00
23301;DHT22;11819;51.394;12.340;2023-04-24T03:57:52;12.50;93.90
23301;DHT22;11819;51.394;12.340;2023-04-24T04:00:21;12.50;93.90
23301;DHT22;11819;51.394;12.340;2023-04-24T04:02:54;12.50;93.90
23301;DHT22;11819;51.394;12.340;2023-04-24T04:05:20;12.50;93.80
23301;DHT22;11819;51.394;12.340;2023-04-24T04:07:46;12.50;93.90
23301;DHT22;11819;51.394;12.340;2023-04-24T04:10:11;12.50;93.80
23301;DHT22;11819;51.394;12.340;2023-04-24T04:12:38;12.50;93.70
23301;DHT22;11819;51.394;12.340;2023-04-24T04:15:04;12.60;93.60
23301;DHT22;11819;51.394;12.340;2023-04-24T04:17:31;12.60;93.90
23301;DHT22;11819;51.394;12.340;2023-04-24T04:20:00;12.60;93.50
23301;DHT22;11819;51.394;12.340;2023-04-24T04:22:26;12.60;93.50
23301;DHT22;11819;51.394;12.340;2023-04-24T04:24:52;12.60;93.50
23301;DHT22;11819;51.394;12.340;2023-04-24T04:27:21;12.60;93.50
23301;DHT22;11819;51.394;12.340;2023-04-24T04:29:54;12.60;93.60
23301;DHT22;11819;51.394;12.340;2023-04-24T04:32:22;12.60;93.60
23301;DHT22;11819;51.394;12.340;2023-04-24T04:34:48;12.60;93.70
23301;DHT22;11819;51.394;12.340;2023-04-24T04:37:15;12.70;93.70
23301;DHT22;11819;51.394;12.340;2023-04-24T04:40:01;12.70;93.70
23301;DHT22;11819;51.394;12.340;2023-04-24T04:42:37;12.80;93.80
23301;DHT22;11819;51.394;12.340;2023-04-24T04:45:10;12.70;93.70
23301;DHT22;11819;51.394;12.340;2023-04-24T04:47:50;12.70;93.80
23301;DHT22;11819;51.394;12.340;2023-04-24T04:50:16;12.70;93.80
23301;DHT22;11819;51.394;12.340;2023-04-24T04:52:46;12.80;93.90
23301;DHT22;11819;51.394;12.340;2023-04-24T04:55:25;12.70;93.80
23301;DHT22;11819;51.394;12.340;2023-04-24T04:58:06;12.70;93.90
23301;DHT22;11819;51.394;12.340;2023-04-24T05:00:34;12.70;94.00
23301;DHT22;11819;51.394;12.340;2023-04-24T05:03:10;12.70;94.00
23301;DHT22;11819;51.394;12.340;2023-04-24T05:05:36;12.80;94.10
23301;DHT22;11819;51.394;12.340;2023-04-24T05:08:09;12.80;94.00
23301;DHT22;11819;51.394;12.340;2023-04-24T05:10:35;12.80;94.00
23301;DHT22;11819;51.394;12.340;2023-04-24T05:13:03;12.80;94.00
23301;DHT22;11819;51.394;12.340;2023-04-24T05:15:30;12.80;94.10
23301;DHT22;11819;51.394;12.340;2023-04-24T05:17:58;12.80;94.10
23301;DHT22;11819;51.394;12.340;2023-04-24T05:20:27;12.80;94.10
23301;DHT22;11819;51.394;12.340;2023-04-24T05:22:53;12.80;94.10
23301;DHT22;11819;51.394;12.340;2023-04-24T05:25:20;12.90;94.10
23301;DHT22;11819;51.394;12.340;2023-04-24T05:27:52;12.90;93.90
23301;DHT22;11819;51.394;12.340;2023-04-24T05:30:19;13.00;93.90
23301;DHT22;11819;51.394;12.340;2023-04-24T05:32:46;13.00;93.80
23301;DHT22;11819;51.394;12.340;2023-04-24T05:35:12;13.00;93.80
23301;DHT22;11819;51.394;12.340;2023-04-24T05:37:38;13.10;93.80
23301;DHT22;11819;51.394;12.340;2023-04-24T05:40:06;13.10;93.80
23301;DHT22;11819;51.394;12.340;2023-04-24T05:42:32;13.10;93.70
23301;DHT22;11819;51.394;12.340;2023-04-24T05:44:58;13.10;93.80
23301;DHT22;11819;51.394;12.340;2023-04-24T05:47:25;13.00;93.90
23301;DHT22;11819;51.394;12.340;2023-04-24T05:49:52;13.00;93.80
23301;DHT22;11819;51.394;12.340;2023-04-24T05:52:20;13.00;93.90
23301;DHT22;11819;51.394;12.340;2023-04-24T05:54:47;13.00;94.00
23301;DHT22;11819;51.394;12.340;2023-04-24T05:57:18;13.00;94.00
23301;DHT22;11819;51.394;12.340;2023-04-24T05:59:51;13.10;93.90
23301;DHT22;11819;51.394;12.340;2023-04-24T06:02:17;13.10;93.70
23301;DHT22;11819;51.394;12.340;2023-04-24T06:04:44;13.20;93.60
23301;DHT22;11819;51.394;12.340;2023-04-24T06:07:11;13.20;93.40
23301;DHT22;11819;51.394;12.340;2023-04-24T06:09:37;13.30;93.30
23301;DHT22;11819;51.394;12.340;2023-04-24T06:12:03;13.30;93.10
23301;DHT22;11819;51.394;12.340;2023-04-24T06:14:43;13.40;92.90
23301;DHT22;11819;51.394;12.340;2023-04-24T06:17:15;13.30;92.70
23301;DHT22;11819;51.394;12.340;2023-04-24T06:19:41;13.40;92.80
23301;DHT22;11819;51.394;12.340;2023-04-24T06:22:07;13.50;92.50
23301;DHT22;11819;51.394;12.340;2023-04-24T06:24:34;13.50;92.40
23301;DHT22;11819;51.394;12.340;2023-04-24T06:26:59;13.50;92.40
23301;DHT22;11819;51.394;12.340;2023-04-24T06:29:26;13.50;92.20
23301;DHT22;11819;51.394;12.340;2023-04-24T06:31:52;13.50;92.30
23301;DHT22;11819;51.394;12.340;2023-04-24T06:34:18;13.50;92.40
23301;DHT22;11819;51.394;12.340;2023-04-24T06:36:46;13.50;92.20
23301;DHT22;11819;51.394;12.340;2023-04-24T06:39:12;13.50;92.10
23301;DHT22;11819;51.394;12.340;2023-04-24T06:41:38;13.40;91.90
23301;DHT22;11819;51.394;12.340;2023-04-24T06:44:05;13.50;92.00
23301;DHT22;11819;51.394;12.340;2023-04-24T06:46:31;13.50;91.90
23301;DHT22;11819;51.394;12.340;2023-04-24T06:48:56;13.50;91.90
23301;DHT22;11819;51.394;12.340;2023-04-24T06:51:24;13.50;91.90
23301;DHT22;11819;51.394;12.340;2023-04-24T06:53:51;13.60;91.90
23301;DHT22;11819;51.394;12.340;2023-04-24T06:56:17;13.70;91.90
23301;DHT22;11819;51.394;12.340;2023-04-24T06:58:42;13.80;91.90
23301;DHT22;11819;51.394;12.340;2023-04-24T07:01:10;13.70;91.90
23301;DHT22;11819;51.394;12.340;2023-04-24T07:03:36;13.80;91.80
23301;DHT22;11819;51.394;12.340;2023-04-24T07:06:02;13.80;91.80
23301;DHT22;11819;51.394;12.340;2023-04-24T07:08:29;13.80;91.90
23301;DHT22;11819;51.394;12.340;2023-04-24T07:10:59;13.80;92.00
23301;DHT22;11819;51.394;12.340;2023-04-24T07:13:25;13.80;91.80
23301;DHT22;11819;51.394;12.340;2023-04-24T07:15:51;13.80;91.90
23301;DHT22;11819;51.394;12.340;2023-04-24T07:18:20;13.80;91.80
23301;DHT22;11819;51.394;12.340;2023-04-24T07:20:46;13.90;91.90
23301;DHT22;11819;51.394;12.340;2023-04-24T07:23:12;13.90;91.80
23301;DHT22;11819;51.394;12.340;2023-04-24T07:25:38;13.90;91.80
23301;DHT22;11819;51.394;12.340;2023-04-24T07:28:04;13.90;91.80
23301;DHT22;11819;51.394;12.340;2023-04-24T07:30:32;13.90;91.80
23301;DHT22;11819;51.394;12.340;2023-04-24T07:32:58;13.90;91.90
23301;DHT22;11819;51.394;12.340;2023-04-24T07:35:24;14.00;91.90
23301;DHT22;11819;51.394;12.340;2023-04-24T07:37:53;14.00;91.80
23301;DHT22;11819;51.394;12.340;2023-04-24T07:40:19;14.00;91.70
23301;DHT22;11819;51.394;12.340;2023-04-24T07:42:46;14.10;91.70
23301;DHT22;11819;51.394;12.340;2023-04-24T07:45:14;14.10;91.40
23301;DHT22;11819;51.394;12.340;2023-04-24T07:47:41;14.10;91.30
23301;DHT22;11819;51.394;12.340;2023-04-24T07:50:09;14.20;91.10
23301;DHT22;11819;51.394;12.340;2023-04-24T07:52:36;14.20;91.00
23301;DHT22;11819;51.394;12.340;2023-04-24T07:55:02;14.20;90.90
23301;DHT22;11819;51.394;12.340;2023-04-24T07:57:29;14.30;90.90
23301;DHT22;11819;51.394;12.340;2023-04-24T07:59:55;14.30;90.80
23301;DHT22;11819;51.394;12.340;2023-04-24T08:02:20;14.40;90.20
23301;DHT22;11819;51.394;12.340;2023-04-24T08:04:52;14.40;90.30
23301;DHT22;11819;51.394;12.340;2023-04-24T08:07:21;14.50;90.20
23301;DHT22;11819;51.394;12.340;2023-04-24T08:09:47;14.50;88.50
23301;DHT22;11819;51.394;12.340;2023-04-24T08:12:13;14.50;87.90
23301;DHT22;11819;51.394;12.340;2023-04-24T08:14:42;14.50;88.50
23301;DHT22;11819;51.394;12.340;2023-04-24T08:17:07;14.50;88.40
23301;DHT22;11819;51.394;12.340;2023-04-24T08:19:33;14.60;87.70
23301;DHT22;11819;51.394;12.340;2023-04-24T08:21:59;14.70;87.50
23301;DHT22;11819;51.394;12.340;2023-04-24T08:24:25;14.80;87.10
23301;DHT22;11819;51.394;12.340;2023-04-24T08:26:50;14.90;86.70
23301;DHT22;11819;51.394;12.340;2023-04-24T08:29:16;15.00;86.30
23301;DHT22;11819;51.394;12.340;2023-04-24T08:31:45;15.10;85.50
23301;DHT22;11819;51.394;12.340;2023-04-24T08:34:11;15.20;83.70
23301;DHT22;11819;51.394;12.340;2023-04-24T08:36:38;15.20;83.10
23301;DHT22;11819;51.394;12.340;2023-04-24T08:39:06;15.30;82.70
23301;DHT22;11819;51.394;12.340;2023-04-24T08:41:34;15.30;81.80
23301;DHT22;11819;51.394;12.340;2023-04-24T08:44:01;15.30;81.40
23301;DHT22;11819;51.394;12.340;2023-04-24T08:46:27;15.30;79.70
23301;DHT22;11819;51.394;12.340;2023-04-24T08:48:56;15.30;79.20
23301;DHT22;11819;51.394;12.340;2023-04-24T08:51:24;15.30;78.70
23301;DHT22;11819;51.394;12.340;2023-04-24T08:53:53;15.30;79.20
23301;DHT22;11819;51.394;12.340;2023-04-24T08:56:21;15.30;79.30
23301;DHT22;11819;51.394;12.340;2023-04-24T08:58:52;15.30;78.70
23301;DHT22;11819;51.394;12.340;2023-04-24T09:01:19;15.20;79.20
23301;DHT22;11819;51.394;12.340;2023-04-24T09:03:48;15.20;79.70
23301;DHT22;11819;51.394;12.340;2023-04-24T09:06:16;15.30;80.70
23301;DHT22;11819;51.394;12.340;2023-04-24T09:08:43;15.40;78.40
23301;DHT22;11819;51.394;12.340;2023-04-24T09:11:11;15.40;77.70
23301;DHT22;11819;51.394;12.340;2023-04-24T09:13:37;15.40;76.20
23301;DHT22;11819;51.394;12.340;2023-04-24T09:16:03;15.30;76.00
23301;DHT22;11819;51.394;12.340;2023-04-24T09:18:29;15.20;76.60
23301;DHT22;11819;51.394;12.340;2023-04-24T09:21:02;15.20;76.70
23301;DHT22;11819;51.394;12.340;2023-04-24T09:23:29;15.10;76.70
23301;DHT22;11819;51.394;12.340;2023-04-24T09:25:55;15.00;76.90
23301;DHT22;11819;51.394;12.340;2023-04-24T09:28:32;15.00;76.80
23301;DHT22;11819;51.394;12.340;2023-04-24T09:31:12;15.00;77.10
23301;DHT22;11819;51.394;12.340;2023-04-24T09:33:38;14.90;77.40
23301;DHT22;11819;51.394;12.340;2023-04-24T09:36:04;14.90;77.60
23301;DHT22;11819;51.394;12.340;2023-04-24T09:38:38;14.90;78.10
23301;DHT22;11819;51.394;12.340;2023-04-24T09:41:08;14.90;78.60
23301;DHT22;11819;51.394;12.340;2023-04-24T09:43:34;15.00;79.00
23301;DHT22;11819;51.394;12.340;2023-04-24T09:46:05;15.00;79.30
23301;DHT22;11819;51.394;12.340;2023-04-24T09:48:36;15.10;79.80
23301;DHT22;11819;51.394;12.340;2023-04-24T09:51:04;15.20;79.60
23301;DHT22;11819;51.394;12.340;2023-04-24T09:53:32;15.30;78.70
23301;DHT22;11819;51.394;12.340;2023-04-24T09:56:09;15.40;77.10
23301;DHT22;11819;51.394;12.340;2023-04-24T09:58:37;15.40;77.10
23301;DHT22;11819;51.394;12.340;2023-04-24T10:01:03;15.50;76.50
23301;DHT22;11819;51.394;12.340;2023-04-24T10:03:33;15.60;74.00
23301;DHT22;11819;51.394;12.340;2023-04-24T10:06:03;15.60;71.00
23301;DHT22;11819;51.394;12.340;2023-04-24T10:08:35;15.60;71.00
23301;DHT22;11819;51.394;12.340;2023-04-24T10:11:01;15.50;70.00
23301;DHT22;11819;51.394;12.340;2023-04-24T10:13:27;15.50;69.40
23301;DHT22;11819;51.394;12.340;2023-04-24T10:15:53;15.50;69.60
23301;DHT22;11819;51.394;12.340;2023-04-24T10:18:20;15.50;69.80
23301;DHT22;11819;51.394;12.340;2023-04-24T10:20:46;15.50;69.80
23301;DHT22;11819;51.394;12.340;2023-04-24T10:23:12;15.50;70.10
23301;DHT22;11819;51.394;12.340;2023-04-24T10:25:38;15.50;70.00
23301;DHT22;11819;51.394;12.340;2023-04-24T10:28:04;15.60;69.80
23301;DHT22;11819;51.394;12.340;2023-04-24T10:30:32;15.70;68.90
23301;DHT22;11819;51.394;12.340;2023-04-24T10:33:05;15.70;68.10
23301;DHT22;11819;51.394;12.340;2023-04-24T10:35:41;15.80;67.60
23301;DHT22;11819;51.394;12.340;2023-04-24T10:38:13;15.80;67.60
23301;DHT22;11819;51.394;12.340;2023-04-24T10:40:39;15.80;67.10
23301;DHT22;11819;51.394;12.340;2023-04-24T10:43:07;15.80;67.80
23301;DHT22;11819;51.394;12.340;2023-04-24T10:45:37;15.90;67.70
23301;DHT22;11819;51.394;12.340;2023-04-24T10:48:06;15.90;66.00
23301;DHT22;11819;51.394;12.340;2023-04-24T10:50:45;15.90;65.20
23301;DHT22;11819;51.394;12.340;2023-04-24T10:53:18;15.80;64.10
23301;DHT22;11819;51.394;12.340;2023-04-24T10:55:49;15.80;64.30
23301;DHT22;11819;51.394;12.340;2023-04-24T10:58:16;15.90;65.00
23301;DHT22;11819;51.394;12.340;2023-04-24T11:00:43;15.90;63.90
23301;DHT22;11819;51.394;12.340;2023-04-24T11:03:31;16.00;62.80
23301;DHT22;11819;51.394;12.340;2023-04-24T11:06:07;16.10;62.10
23301;DHT22;11819;51.394;12.340;2023-04-24T11:08:39;16.20;61.70
23301;DHT22;11819;51.394;12.340;2023-04-24T11:11:17;16.20;61.30
23301;DHT22;11819;51.394;12.340;2023-04-24T11:16:33;16.10;60.80
23301;DHT22;11819;51.394;12.340;2023-04-24T11:22:02;16.30;59.90
23301;DHT22;11819;51.394;12.340;2023-04-24T11:24:49;16.30;59.20
23301;DHT22;11819;51.394;12.340;2023-04-24T11:27:23;16.40;59.90
23301;DHT22;11819;51.394;12.340;2023-04-24T11:30:00;16.60;59.70
23301;DHT22;11819;51.394;12.340;2023-04-24T11:32:35;16.80;58.70
23301;DHT22;11819;51.394;12.340;2023-04-24T11:35:08;16.70;59.10
23301;DHT22;11819;51.394;12.340;2023-04-24T11:37:39;16.80;59.70
23301;DHT22;11819;51.394;12.340;2023-04-24T11:40:07;16.80;58.90
23301;DHT22;11819;51.394;12.340;2023-04-24T11:42:37;16.80;58.60
23301;DHT22;11819;51.394;12.340;2023-04-24T11:45:15;16.70;59.00
23301;DHT22;11819;51.394;12.340;2023-04-24T11:47:43;16.60;59.20
23301;DHT22;11819;51.394;12.340;2023-04-24T11:50:12;16.60;58.90
23301;DHT22;11819;51.394;12.340;2023-04-24T11:52:42;16.50;58.90
23301;DHT22;11819;51.394;12.340;2023-04-24T11:57:54;16.40;58.00
23301;DHT22;11819;51.394;12.340;2023-04-24T12:00:29;16.30;57.70
23301;DHT22;11819;51.394;12.340;2023-04-24T12:03:11;16.20;58.10
23301;DHT22;11819;51.394;12.340;2023-04-24T12:05:39;16.10;58.20
23301;DHT22;11819;51.394;12.340;2023-04-24T12:08:05;16.10;58.30
23301;DHT22;11819;51.394;12.340;2023-04-24T12:10:32;16.10;58.50
23301;DHT22;11819;51.394;12.340;2023-04-24T12:12:59;16.30;58.60
23301;DHT22;11819;51.394;12.340;2023-04-24T12:15:25;16.40;58.90
23301;DHT22;11819;51.394;12.340;2023-04-24T12:17:53;16.60;57.50
23301;DHT22;11819;51.394;12.340;2023-04-24T12:20:24;16.80;57.80
23301;DHT22;11819;51.394;12.340;2023-04-24T12:22:55;17.10;56.70
23301;DHT22;11819;51.394;12.340;2023-04-24T12:25:25;17.10;55.90
23301;DHT22;11819;51.394;12.340;2023-04-24T12:30:30;16.80;56.60
23301;DHT22;11819;51.394;12.340;2023-04-24T12:33:00;16.80;57.60
23301;DHT22;11819;51.394;12.340;2023-04-24T12:35:28;16.90;57.50
23301;DHT22;11819;51.394;12.340;2023-04-24T12:37:54;16.80;57.60
23301;DHT22;11819;51.394;12.340;2023-04-24T12:40:21;16.80;58.00
23301;DHT22;11819;51.394;12.340;2023-04-24T12:42:50;16.80;57.90
23301;DHT22;11819;51.394;12.340;2023-04-24T12:45:17;17.20;56.90
23301;DHT22;11819;51.394;12.340;2023-04-24T12:47:44;17.30;56.00
23301;DHT22;11819;51.394;12.340;2023-04-24T12:50:14;17.50;54.30
23301;DHT22;11819;51.394;12.340;2023-04-24T12:52:40;17.40;53.70
23301;DHT22;11819;51.394;12.340;2023-04-24T12:55:07;17.30;54.00
23301;DHT22;11819;51.394;12.340;2023-04-24T12:57:34;17.40;53.20
23301;DHT22;11819;51.394;12.340;2023-04-24T13:00:00;17.30;53.00
23301;DHT22;11819;51.394;12.340;2023-04-24T13:02:28;17.30;53.50
23301;DHT22;11819;51.394;12.340;2023-04-24T13:04:54;17.30;53.50
23301;DHT22;11819;51.394;12.340;2023-04-24T13:07:21;17.60;54.00
23301;DHT22;11819;51.394;12.340;2023-04-24T13:09:48;17.80;52.30
23301;DHT22;11819;51.394;12.340;2023-04-24T13:12:14;17.70;52.50
23301;DHT22;11819;51.394;12.340;2023-04-24T13:14:40;17.50;52.80
23301;DHT22;11819;51.394;12.340;2023-04-24T13:17:06;17.50;52.90
23301;DHT22;11819;51.394;12.340;2023-04-24T13:19:38;17.60;52.70
23301;DHT22;11819;51.394;12.340;2023-04-24T13:22:04;17.60;52.20
23301;DHT22;11819;51.394;12.340;2023-04-24T13:24:30;17.50;53.00
23301;DHT22;11819;51.394;12.340;2023-04-24T13:26:58;17.70;52.80
23301;DHT22;11819;51.394;12.340;2023-04-24T13:29:24;18.10;52.50
23301;DHT22;11819;51.394;12.340;2023-04-24T13:31:51;18.40;51.90
23301;DHT22;11819;51.394;12.340;2023-04-24T13:34:17;18.40;51.70
23301;DHT22;11819;51.394;12.340;2023-04-24T13:36:43;18.40;51.60
23301;DHT22;11819;51.394;12.340;2023-04-24T13:39:11;18.30;52.30
23301;DHT22;11819;51.394;12.340;2023-04-24T13:41:37;17.90;53.10
23301;DHT22;11819;51.394;12.340;2023-04-24T13:44:04;17.60;53.70
23301;DHT22;11819;51.394;12.340;2023-04-24T13:46:32;17.40;54.30
23301;DHT22;11819;51.394;12.340;2023-04-24T13:48:58;17.30;54.70
23301;DHT22;11819;51.394;12.340;2023-04-24T13:51:26;17.40;55.10
23301;DHT22;11819;51.394;12.340;2023-04-24T13:53:55;17.50;54.30
23301;DHT22;11819;51.394;12.340;2023-04-24T13:56:22;17.40;53.90
23301;DHT22;11819;51.394;12.340;2023-04-24T13:58:48;17.40;53.90
23301;DHT22;11819;51.394;12.340;2023-04-24T14:01:14;17.20;54.30
23301;DHT22;11819;51.394;12.340;2023-04-24T14:03:41;17.10;55.30
23301;DHT22;11819;51.394;12.340;2023-04-24T14:06:08;17.00;55.80
23301;DHT22;11819;51.394;12.340;2023-04-24T14:08:34;17.00;56.40
23301;DHT22;11819;51.394;12.340;2023-04-24T14:11:00;17.10;55.50
23301;DHT22;11819;51.394;12.340;2023-04-24T14:13:26;17.30;55.40
23301;DHT22;11819;51.394;12.340;2023-04-24T14:15:54;17.70;54.80
23301;DHT22;11819;51.394;12.340;2023-04-24T14:18:20;17.80;54.00
23301;DHT22;11819;51.394;12.340;2023-04-24T14:20:45;17.70;54.20
23301;DHT22;11819;51.394;12.340;2023-04-24T14:23:11;17.60;54.90
23301;DHT22;11819;51.394;12.340;2023-04-24T14:25:37;17.40;55.70
23301;DHT22;11819;51.394;12.340;2023-04-24T14:28:03;17.50;55.90
23301;DHT22;11819;51.394;12.340;2023-04-24T14:30:31;17.40;56.00
23301;DHT22;11819;51.394;12.340;2023-04-24T14:32:57;17.20;56.50
23301;DHT22;11819;51.394;12.340;2023-04-24T14:35:22;17.10;56.50
23301;DHT22;11819;51.394;12.340;2023-04-24T14:37:48;17.60;56.90
23301;DHT22;11819;51.394;12.340;2023-04-24T14:40:14;17.90;55.20
23301;DHT22;11819;51.394;12.340;2023-04-24T14:42:40;17.80;54.70
23301;DHT22;11819;51.394;12.340;2023-04-24T14:45:06;17.60;55.70
23301;DHT22;11819;51.394;12.340;2023-04-24T14:47:33;17.70;55.70
23301;DHT22;11819;51.394;12.340;2023-04-24T14:49:58;18.10;54.80
23301;DHT22;11819;51.394;12.340;2023-04-24T14:52:24;18.50;54.10
23301;DHT22;11819;51.394;12.340;2023-04-24T14:54:50;18.40;54.40
23301;DHT22;11819;51.394;12.340;2023-04-24T14:57:15;18.00;55.30
23301;DHT22;11819;51.394;12.340;2023-04-24T14:59:41;17.50;56.60
23301;DHT22;11819;51.394;12.340;2023-04-24T15:02:07;16.90;58.00
23301;DHT22;11819;51.394;12.340;2023-04-24T15:04:32;16.50;59.00
23301;DHT22;11819;51.394;12.340;2023-04-24T15:06:58;16.20;60.20
23301;DHT22;11819;51.394;12.340;2023-04-24T15:09:24;15.90;61.70
23301;DHT22;11819;51.394;12.340;2023-04-24T15:11:51;15.80;62.50
23301;DHT22;11819;51.394;12.340;2023-04-24T15:14:18;15.70;62.90
23301;DHT22;11819;51.394;12.340;2023-04-24T15:16:44;15.70;63.40
23301;DHT22;11819;51.394;12.340;2023-04-24T15:19:10;15.70;63.80
23301;DHT22;11819;51.394;12.340;2023-04-24T15:21:37;16.00;62.90
23301;DHT22;11819;51.394;12.340;2023-04-24T15:24:04;16.10;62.70
23301;DHT22;11819;51.394;12.340;2023-04-24T15:26:30;16.10;62.80
23301;DHT22;11819;51.394;12.340;2023-04-24T15:28:56;15.90;63.50